createdAt,value
2022-08-31T00:06:06.420Z,56.48
2022-08-31T00:16:12.294Z,56.89
2022-08-31T00:26:15.347Z,57.87
2022-08-31T00:36:22.162Z,58.69
2022-08-31T00:46:27.566Z,59.51
2022-08-31T00:56:32.112Z,59.96
2022-08-31T01:06:35.196Z,60.91
2022-08-31T01:16:44.915Z,61.80
2022-08-31T01:26:53.753Z,62.34
2022-08-31T01:36:58.852Z,62.85
2022-08-31T01:47:03.261Z,63.90
2022-08-31T01:57:06.447Z,64.73
2022-08-31T02:07:10.505Z,65.66
2022-08-31T02:17:13.211Z,66.15
2022-08-31T02:27:17.247Z,66.56
2022-08-31T02:37:20.934Z,67.19
2022-08-31T02:47:27.238Z,67.68
2022-08-31T02:57:29.953Z,68.10
2022-08-31T03:07:34.104Z,68.60
2022-08-31T03:17:37.610Z,69.29
2022-08-31T03:27:41.740Z,69.56
2022-08-31T03:37:44.952Z,70.33
2022-08-31T03:47:49.483Z,71.16
2022-08-31T03:57:52.281Z,71.26
2022-08-31T04:07:56.838Z,71.22
2022-08-31T04:17:59.564Z,71.61
2022-08-31T04:28:04.175Z,72.40
2022-08-31T04:38:06.905Z,72.96
2022-08-31T04:48:11.016Z,73.30
2022-08-31T04:58:13.990Z,73.27
2022-08-31T05:08:18.160Z,73.78
2022-08-31T05:18:20.882Z,74.51
2022-08-31T05:28:25.008Z,74.99
2022-08-31T05:38:27.709Z,74.75
2022-08-31T05:48:33.567Z,74.48
2022-08-31T05:58:36.666Z,74.33
2022-08-31T06:08:41.347Z,73.90
2022-08-31T06:18:50.621Z,73.61
2022-08-31T06:28:56.563Z,72.74
2022-08-31T06:39:00.697Z,72.38
2022-08-31T06:49:05.592Z,71.38
2022-08-31T06:59:12.100Z,70.19
2022-08-31T07:09:18.101Z,68.74
2022-08-31T07:19:22.153Z,66.96
2022-08-31T07:29:30.105Z,66.01
2022-08-31T07:39:51.892Z,65.12
2022-08-31T07:49:58.554Z,63.98
2022-08-31T08:00:08.021Z,62.60
2022-08-31T08:10:13.983Z,61.89
2022-08-31T08:20:16.757Z,60.92
2022-08-31T08:30:35.048Z,60.21
2022-08-31T08:40:43.757Z,58.68
2022-08-31T08:50:47.955Z,58.80
2022-08-31T09:00:52.942Z,56.35
2022-08-31T09:11:07.089Z,55.45
2022-08-31T09:21:20.768Z,54.28
2022-08-31T09:31:37.151Z,54.56
2022-08-31T09:41:40.172Z,54.03
2022-08-31T09:51:44.281Z,53.47
2022-08-31T10:01:47.615Z,52.57
2022-08-31T10:11:57.519Z,49.86
2022-08-31T10:22:05.327Z,49.91
2022-08-31T10:32:24.815Z,48.99
2022-08-31T10:42:30.708Z,46.25
2022-08-31T10:52:42.974Z,45.53
2022-08-31T11:02:55.365Z,45.15
2022-08-31T11:13:06.761Z,47.01
2022-08-31T11:23:28.553Z,45.46
2022-08-31T11:33:32.872Z,26.79
2022-08-31T11:43:51.970Z,20.02
2022-08-31T11:53:56.212Z,15.97
2022-08-31T12:04:03.497Z,14.18
2022-08-31T12:14:18.919Z,13.86
2022-08-31T12:24:34.542Z,12.94
2022-08-31T12:34:47.277Z,13.48
2022-08-31T12:44:52.936Z,13.19
2022-08-31T12:55:24.735Z,21.16
2022-08-31T13:05:30.078Z,28.03
2022-08-31T13:15:39.873Z,30.64
2022-08-31T13:25:48.426Z,32.02
2022-08-31T13:35:57.778Z,33.40
2022-08-31T13:46:01.071Z,33.25
2022-08-31T13:56:39.238Z,33.52
2022-08-31T14:06:44.083Z,33.76
2022-08-31T14:16:52.007Z,33.99
2022-08-31T14:26:55.146Z,35.40
2022-08-31T14:37:02.367Z,34.85
2022-08-31T14:47:05.772Z,35.67
2022-08-31T14:57:14.946Z,35.80
2022-08-31T15:07:18.396Z,36.16
2022-08-31T15:17:24.547Z,36.91
2022-08-31T15:27:29.157Z,38.06
2022-08-31T15:37:33.532Z,40.55
2022-08-31T15:47:57.441Z,42.11
2022-08-31T15:58:04.341Z,44.64
2022-08-31T16:08:10.842Z,45.35
2022-08-31T16:18:15.396Z,46.50
2022-08-31T16:28:19.907Z,47.92
2022-08-31T16:38:24.431Z,47.90
2022-08-31T16:48:44.685Z,48.42
2022-08-31T16:58:52.471Z,49.90
2022-08-31T17:08:56.270Z,51.09
2022-08-31T17:19:00.515Z,52.01
2022-08-31T17:29:06.318Z,52.84
2022-08-31T17:39:11.220Z,53.16
2022-08-31T17:49:15.104Z,53.63
2022-08-31T17:59:22.265Z,54.33
2022-08-31T18:09:29.491Z,55.04
2022-08-31T18:19:34.433Z,56.10
2022-08-31T18:29:39.372Z,56.70
2022-08-31T18:40:04.259Z,58.06
2022-08-31T18:50:09.915Z,59.29
2022-08-31T19:00:16.338Z,60.49
2022-08-31T19:10:19.050Z,61.79
2022-08-31T19:20:23.118Z,63.60
2022-08-31T19:30:28.235Z,64.49
2022-08-31T19:40:38.916Z,65.50
2022-08-31T19:50:42.462Z,66.66
2022-08-31T20:00:47.341Z,66.77
2022-08-31T20:10:51.152Z,67.04
2022-08-31T20:20:56.671Z,67.75
2022-08-31T20:31:06.233Z,69.05
2022-08-31T20:41:10.414Z,70.25
2022-08-31T20:51:16.326Z,70.25
2022-08-31T21:01:21.752Z,70.51
2022-08-31T21:11:24.987Z,70.84
2022-08-31T21:21:30.761Z,70.31
2022-08-31T21:31:33.560Z,70.10
2022-08-31T21:41:38.616Z,69.65
2022-08-31T21:51:46.453Z,69.10
2022-08-31T22:01:59.038Z,68.54
2022-08-31T22:12:06.219Z,67.86
2022-08-31T22:22:13.113Z,67.79
2022-08-31T22:32:16.481Z,67.90
2022-08-31T22:42:20.528Z,67.66
2022-08-31T22:52:23.248Z,67.72
2022-08-31T23:02:30.573Z,67.99
2022-08-31T23:12:33.298Z,68.25
2022-08-31T23:22:37.364Z,68.50
2022-08-31T23:32:41.259Z,68.97
2022-08-31T23:42:45.360Z,69.30
2022-08-31T23:52:48.643Z,69.74
